sensor_id;sensor_type;location;lat;lon;timestamp;P1;durP1;ratioP1;P2;durP2;ratioP2
1412;SDS011;701;52.526;13.408;2023-04-24T00:01:28;8.88;;;4.30;;
1412;SDS011;701;52.526;13.408;2023-04-24T00:03:54;6.97;;;4.10;;
1412;SDS011;701;52.526;13.408;2023-04-24T00:06:25;6.80;;;3.95;;
1412;SDS011;701;52.526;13.408;2023-04-24T00:08:58;7.68;;;4.10;;
1412;SDS011;701;52.526;13.408;2023-04-24T00:11:25;7.38;;;3.97;;
1412;SDS011;701;52.526;13.408;2023-04-24T00:13:52;7.68;;;4.50;;
1412;SDS011;701;52.526;13.408;2023-04-24T00:16:18;8.07;;;4.43;;
1412;SDS011;701;52.526;13.408;2023-04-24T00:18:44;7.78;;;4.10;;
1412;SDS011;701;52.526;13.408;2023-04-24T00:21:13;8.73;;;4.60;;
1412;SDS011;701;52.526;13.408;2023-04-24T00:23:41;8.13;;;4.30;;
1412;SDS011;701;52.526;13.408;2023-04-24T00:26:06;8.07;;;4.73;;
1412;SDS011;701;52.526;13.408;2023-04-24T00:28:33;7.88;;;4.15;;
1412;SDS011;701;52.526;13.408;2023-04-24T00:30:58;7.97;;;4.20;;
1412;SDS011;701;52.526;13.408;2023-04-24T00:33:24;7.67;;;4.50;;
1412;SDS011;701;52.526;13.408;2023-04-24T00:35:50;8.23;;;4.32;;
1412;SDS011;701;52.526;13.408;2023-04-24T00:38:16;7.70;;;4.03;;
1412;SDS011;701;52.526;13.408;2023-04-24T00:40:41;7.55;;;4.05;;
1412;SDS011;701;52.526;13.408;2023-04-24T00:43:07;7.70;;;4.57;;
1412;SDS011;701;52.526;13.408;2023-04-24T00:45:33;7.88;;;4.22;;
1412;SDS011;701;52.526;13.408;2023-04-24T00:47:59;8.35;;;4.40;;
1412;SDS011;701;52.526;13.408;2023-04-24T00:50:26;10.07;;;4.60;;
1412;SDS011;701;52.526;13.408;2023-04-24T00:52:52;9.37;;;4.80;;
1412;SDS011;701;52.526;13.408;2023-04-24T00:55:17;7.72;;;4.30;;
1412;SDS011;701;52.526;13.408;2023-04-24T00:57:44;7.38;;;4.30;;
1412;SDS011;701;52.526;13.408;2023-04-24T01:00:11;8.70;;;4.78;;
1412;SDS011;701;52.526;13.408;2023-04-24T01:02:42;9.48;;;4.35;;
1412;SDS011;701;52.526;13.408;2023-04-24T01:05:10;7.88;;;4.43;;
1412;SDS011;701;52.526;13.408;2023-04-24T01:07:37;8.40;;;4.57;;
1412;SDS011;701;52.526;13.408;2023-04-24T01:10:05;8.85;;;4.00;;
1412;SDS011;701;52.526;13.408;2023-04-24T01:12:32;9.15;;;4.72;;
1412;SDS011;701;52.526;13.408;2023-04-24T01:14:58;8.80;;;4.85;;
1412;SDS011;701;52.526;13.408;2023-04-24T01:17:24;8.00;;;4.60;;
1412;SDS011;701;52.526;13.408;2023-04-24T01:19:50;8.30;;;4.53;;
1412;SDS011;701;52.526;13.408;2023-04-24T01:22:18;8.30;;;4.73;;
1412;SDS011;701;52.526;13.408;2023-04-24T01:24:45;10.32;;;4.57;;
1412;SDS011;701;52.526;13.408;2023-04-24T01:27:11;8.32;;;5.07;;
1412;SDS011;701;52.526;13.408;2023-04-24T01:29:37;8.32;;;4.63;;
1412;SDS011;701;52.526;13.408;2023-04-24T01:32:03;8.18;;;4.28;;
1412;SDS011;701;52.526;13.408;2023-04-24T01:34:30;9.73;;;5.07;;
1412;SDS011;701;52.526;13.408;2023-04-24T01:36:56;9.38;;;4.90;;
1412;SDS011;701;52.526;13.408;2023-04-24T01:39:22;8.97;;;4.70;;
1412;SDS011;701;52.526;13.408;2023-04-24T01:41:52;8.80;;;4.85;;
1412;SDS011;701;52.526;13.408;2023-04-24T01:44:18;7.65;;;4.45;;
1412;SDS011;701;52.526;13.408;2023-04-24T01:46:44;8.50;;;4.63;;
1412;SDS011;701;52.526;13.408;2023-04-24T01:49:10;8.82;;;4.90;;
1412;SDS011;701;52.526;13.408;2023-04-24T01:51:37;8.50;;;4.70;;
1412;SDS011;701;52.526;13.408;2023-04-24T01:54:03;9.67;;;5.03;;
1412;SDS011;701;52.526;13.408;2023-04-24T01:56:29;7.85;;;4.55;;
1412;SDS011;701;52.526;13.408;2023-04-24T01:58:55;9.45;;;4.55;;
1412;SDS011;701;52.526;13.408;2023-04-24T02:01:25;8.10;;;4.65;;
1412;SDS011;701;52.526;13.408;2023-04-24T02:03:51;8.13;;;4.43;;
1412;SDS011;701;52.526;13.408;2023-04-24T02:06:16;7.53;;;4.80;;
1412;SDS011;701;52.526;13.408;2023-04-24T02:08:42;10.97;;;5.00;;
1412;SDS011;701;52.526;13.408;2023-04-24T02:11:08;9.30;;;5.10;;
1412;SDS011;701;52.526;13.408;2023-04-24T02:13:34;8.30;;;4.93;;
1412;SDS011;701;52.526;13.408;2023-04-24T02:16:00;8.47;;;4.93;;
1412;SDS011;701;52.526;13.408;2023-04-24T02:18:26;8.65;;;4.90;;
1412;SDS011;701;52.526;13.408;2023-04-24T02:20:52;9.00;;;4.73;;
1412;SDS011;701;52.526;13.408;2023-04-24T02:23:19;8.95;;;5.15;;
1412;SDS011;701;52.526;13.408;2023-04-24T02:25:45;10.77;;;5.63;;
1412;SDS011;701;52.526;13.408;2023-04-24T02:28:11;8.93;;;4.87;;
1412;SDS011;701;52.526;13.408;2023-04-24T02:30:36;9.20;;;4.93;;
1412;SDS011;701;52.526;13.408;2023-04-24T02:33:02;8.85;;;5.30;;
1412;SDS011;701;52.526;13.408;2023-04-24T02:35:28;9.47;;;5.10;;
1412;SDS011;701;52.526;13.408;2023-04-24T02:37:54;9.55;;;5.38;;
1412;SDS011;701;52.526;13.408;2023-04-24T02:40:20;9.80;;;5.25;;
1412;SDS011;701;52.526;13.408;2023-04-24T02:42:46;10.10;;;5.60;;
1412;SDS011;701;52.526;13.408;2023-04-24T02:45:11;9.07;;;5.30;;
1412;SDS011;701;52.526;13.408;2023-04-24T02:47:38;9.48;;;5.53;;
1412;SDS011;701;52.526;13.408;2023-04-24T02:50:03;9.48;;;5.25;;
1412;SDS011;701;52.526;13.408;2023-04-24T02:52:30;10.00;;;5.30;;
1412;SDS011;701;52.526;13.408;2023-04-24T02:54:55;9.97;;;5.27;;
1412;SDS011;701;52.526;13.408;2023-04-24T02:57:21;9.85;;;5.30;;
1412;SDS011;701;52.526;13.408;2023-04-24T02:59:47;10.00;;;5.53;;
1412;SDS011;701;52.526;13.408;2023-04-24T03:02:13;9.77;;;5.57;;
1412;SDS011;701;52.526;13.408;2023-04-24T03:04:38;10.10;;;5.47;;
1412;SDS011;701;52.526;13.408;2023-04-24T03:07:05;8.18;;;5.15;;
1412;SDS011;701;52.526;13.408;2023-04-24T03:09:31;9.77;;;5.55;;
1412;SDS011;701;52.526;13.408;2023-04-24T03:11:56;10.03;;;5.60;;
1412;SDS011;701;52.526;13.408;2023-04-24T03:14:23;10.02;;;5.53;;
1412;SDS011;701;52.526;13.408;2023-04-24T03:16:50;8.75;;;5.47;;
1412;SDS011;701;52.526;13.408;2023-04-24T03:19:15;9.13;;;5.35;;
1412;SDS011;701;52.526;13.408;2023-04-24T03:21:55;10.25;;;5.35;;
1412;SDS011;701;52.526;13.408;2023-04-24T03:24:21;9.38;;;5.40;;
1412;SDS011;701;52.526;13.408;2023-04-24T03:26:47;9.27;;;5.57;;
1412;SDS011;701;52.526;13.408;2023-04-24T03:29:30;10.02;;;5.57;;
1412;SDS011;701;52.526;13.408;2023-04-24T03:31:57;16.88;;;5.20;;
1412;SDS011;701;52.526;13.408;2023-04-24T03:34:22;8.73;;;5.55;;
1412;SDS011;701;52.526;13.408;2023-04-24T03:36:48;9.07;;;5.18;;
1412;SDS011;701;52.526;13.408;2023-04-24T03:39:14;8.23;;;5.00;;
1412;SDS011;701;52.526;13.408;2023-04-24T03:41:46;8.07;;;5.03;;
1412;SDS011;701;52.526;13.408;2023-04-24T03:44:16;9.18;;;5.60;;
1412;SDS011;701;52.526;13.408;2023-04-24T03:46:44;9.93;;;5.30;;
1412;SDS011;701;52.526;13.408;2023-04-24T03:49:10;10.73;;;5.57;;
1412;SDS011;701;52.526;13.408;2023-04-24T03:51:39;9.38;;;5.32;;
1412;SDS011;701;52.526;13.408;2023-04-24T03:54:25;8.75;;;5.18;;
1412;SDS011;701;52.526;13.408;2023-04-24T03:56:53;11.68;;;5.40;;
1412;SDS011;701;52.526;13.408;2023-04-24T03:59:19;9.23;;;4.80;;
1412;SDS011;701;52.526;13.408;2023-04-24T04:01:50;10.38;;;5.50;;
1412;SDS011;701;52.526;13.408;2023-04-24T04:04:16;10.10;;;5.35;;
1412;SDS011;701;52.526;13.408;2023-04-24T04:06:43;12.93;;;5.88;;
1412;SDS011;701;52.526;13.408;2023-04-24T04:09:09;8.90;;;5.00;;
1412;SDS011;701;52.526;13.408;2023-04-24T04:11:36;8.18;;;5.38;;
1412;SDS011;701;52.526;13.408;2023-04-24T04:14:03;9.15;;;5.47;;
1412;SDS011;701;52.526;13.408;2023-04-24T04:16:30;9.30;;;5.50;;
1412;SDS011;701;52.526;13.408;2023-04-24T04:19:01;10.23;;;5.60;;
1412;SDS011;701;52.526;13.408;2023-04-24T04:21:28;10.23;;;5.25;;
1412;SDS011;701;52.526;13.408;2023-04-24T04:24:05;10.20;;;5.28;;
1412;SDS011;701;52.526;13.408;2023-04-24T04:26:36;10.30;;;5.00;;
1412;SDS011;701;52.526;13.408;2023-04-24T04:29:05;9.25;;;5.00;;
1412;SDS011;701;52.526;13.408;2023-04-24T04:31:33;10.38;;;5.25;;
1412;SDS011;701;52.526;13.408;2023-04-24T04:34:04;10.85;;;5.25;;
1412;SDS011;701;52.526;13.408;2023-04-24T04:36:32;9.77;;;5.35;;
1412;SDS011;701;52.526;13.408;2023-04-24T04:39:10;9.90;;;4.97;;
1412;SDS011;701;52.526;13.408;2023-04-24T04:41:53;9.43;;;5.13;;
1412;SDS011;701;52.526;13.408;2023-04-24T04:44:20;10.07;;;5.30;;
1412;SDS011;701;52.526;13.408;2023-04-24T04:46:46;9.68;;;5.30;;
1412;SDS011;701;52.526;13.408;2023-04-24T04:49:20;10.23;;;5.03;;
1412;SDS011;701;52.526;13.408;2023-04-24T04:51:47;8.32;;;4.97;;
1412;SDS011;701;52.526;13.408;2023-04-24T04:54:13;10.68;;;5.15;;
1412;SDS011;701;52.526;13.408;2023-04-24T04:56:39;11.18;;;5.60;;
1412;SDS011;701;52.526;13.408;2023-04-24T04:59:05;10.43;;;5.57;;
1412;SDS011;701;52.526;13.408;2023-04-24T05:01:31;13.93;;;5.40;;
1412;SDS011;701;52.526;13.408;2023-04-24T05:03:57;13.07;;;6.90;;
1412;SDS011;701;52.526;13.408;2023-04-24T05:06:23;12.87;;;7.00;;
1412;SDS011;701;52.526;13.408;2023-04-24T05:08:49;8.85;;;4.97;;
1412;SDS011;701;52.526;13.408;2023-04-24T05:11:28;9.77;;;4.18;;
1412;SDS011;701;52.526;13.408;2023-04-24T05:13:56;9.40;;;4.03;;
1412;SDS011;701;52.526;13.408;2023-04-24T05:16:30;9.30;;;4.88;;
1412;SDS011;701;52.526;13.408;2023-04-24T05:18:56;7.70;;;4.13;;
1412;SDS011;701;52.526;13.408;2023-04-24T05:21:28;7.18;;;3.75;;
1412;SDS011;701;52.526;13.408;2023-04-24T05:23:54;8.13;;;3.67;;
1412;SDS011;701;52.526;13.408;2023-04-24T05:26:34;8.93;;;3.85;;
1412;SDS011;701;52.526;13.408;2023-04-24T05:29:01;6.63;;;3.30;;
1412;SDS011;701;52.526;13.408;2023-04-24T05:31:27;7.33;;;3.47;;
1412;SDS011;701;52.526;13.408;2023-04-24T05:33:53;7.88;;;3.40;;
1412;SDS011;701;52.526;13.408;2023-04-24T05:36:19;7.90;;;3.25;;
1412;SDS011;701;52.526;13.408;2023-04-24T05:38:45;5.90;;;2.95;;
1412;SDS011;701;52.526;13.408;2023-04-24T05:41:11;6.17;;;3.03;;
1412;SDS011;701;52.526;13.408;2023-04-24T05:43:37;6.93;;;2.77;;
1412;SDS011;701;52.526;13.408;2023-04-24T05:46:02;5.68;;;2.75;;
1412;SDS011;701;52.526;13.408;2023-04-24T05:48:28;5.03;;;2.20;;
1412;SDS011;701;52.526;13.408;2023-04-24T05:50:54;5.25;;;2.22;;
1412;SDS011;701;52.526;13.408;2023-04-24T05:53:20;6.55;;;2.38;;
1412;SDS011;701;52.526;13.408;2023-04-24T05:55:46;6.50;;;2.83;;
1412;SDS011;701;52.526;13.408;2023-04-24T05:58:12;5.70;;;2.17;;
1412;SDS011;701;52.526;13.408;2023-04-24T06:00:39;7.28;;;2.30;;
1412;SDS011;701;52.526;13.408;2023-04-24T06:03:07;5.85;;;2.30;;
1412;SDS011;701;52.526;13.408;2023-04-24T06:05:33;6.18;;;2.85;;
1412;SDS011;701;52.526;13.408;2023-04-24T06:08:01;10.23;;;2.40;;
1412;SDS011;701;52.526;13.408;2023-04-24T06:10:32;4.80;;;1.70;;
1412;SDS011;701;52.526;13.408;2023-04-24T06:12:58;5.05;;;2.00;;
1412;SDS011;701;52.526;13.408;2023-04-24T06:15:29;7.00;;;2.00;;
1412;SDS011;701;52.526;13.408;2023-04-24T06:18:16;7.28;;;1.95;;
1412;SDS011;701;52.526;13.408;2023-04-24T06:20:42;6.57;;;2.20;;
1412;SDS011;701;52.526;13.408;2023-04-24T06:23:08;6.38;;;2.17;;
1412;SDS011;701;52.526;13.408;2023-04-24T06:25:34;5.55;;;2.00;;
1412;SDS011;701;52.526;13.408;2023-04-24T06:28:00;21.33;;;2.67;;
1412;SDS011;701;52.526;13.408;2023-04-24T06:30:28;5.18;;;2.17;;
1412;SDS011;701;52.526;13.408;2023-04-24T06:32:55;7.72;;;2.13;;
1412;SDS011;701;52.526;13.408;2023-04-24T06:35:21;5.93;;;2.07;;
1412;SDS011;701;52.526;13.408;2023-04-24T06:37:47;9.13;;;1.83;;
1412;SDS011;701;52.526;13.408;2023-04-24T06:40:13;5.45;;;1.63;;
1412;SDS011;701;52.526;13.408;2023-04-24T06:42:39;4.85;;;2.00;;
1412;SDS011;701;52.526;13.408;2023-04-24T06:45:07;4.95;;;1.80;;
1412;SDS011;701;52.526;13.408;2023-04-24T06:47:33;5.80;;;1.80;;
1412;SDS011;701;52.526;13.408;2023-04-24T06:49:59;6.55;;;1.98;;
1412;SDS011;701;52.526;13.408;2023-04-24T06:52:25;5.05;;;1.83;;
1412;SDS011;701;52.526;13.408;2023-04-24T06:54:51;5.35;;;1.83;;
1412;SDS011;701;52.526;13.408;2023-04-24T06:57:17;4.70;;;1.87;;
1412;SDS011;701;52.526;13.408;2023-04-24T06:59:43;8.60;;;1.90;;
1412;SDS011;701;52.526;13.408;2023-04-24T07:02:09;5.60;;;1.77;;
1412;SDS011;701;52.526;13.408;2023-04-24T07:04:34;10.45;;;2.40;;
1412;SDS011;701;52.526;13.408;2023-04-24T07:07:00;7.33;;;2.57;;
1412;SDS011;701;52.526;13.408;2023-04-24T07:09:27;4.80;;;1.60;;
1412;SDS011;701;52.526;13.408;2023-04-24T07:11:53;5.78;;;1.30;;
1412;SDS011;701;52.526;13.408;2023-04-24T07:14:19;4.07;;;1.25;;
1412;SDS011;701;52.526;13.408;2023-04-24T07:16:45;10.10;;;1.30;;
1412;SDS011;701;52.526;13.408;2023-04-24T07:19:12;5.15;;;1.30;;
1412;SDS011;701;52.526;13.408;2023-04-24T07:21:38;6.13;;;1.15;;
1412;SDS011;701;52.526;13.408;2023-04-24T07:24:05;4.38;;;1.10;;
1412;SDS011;701;52.526;13.408;2023-04-24T07:26:34;5.07;;;1.40;;
1412;SDS011;701;52.526;13.408;2023-04-24T07:29:00;4.20;;;1.27;;
1412;SDS011;701;52.526;13.408;2023-04-24T07:31:26;4.30;;;1.42;;
1412;SDS011;701;52.526;13.408;2023-04-24T07:33:52;6.93;;;1.00;;
1412;SDS011;701;52.526;13.408;2023-04-24T07:36:17;3.80;;;0.90;;
1412;SDS011;701;52.526;13.408;2023-04-24T07:38:44;6.65;;;1.05;;
1412;SDS011;701;52.526;13.408;2023-04-24T07:41:12;4.13;;;1.30;;
1412;SDS011;701;52.526;13.408;2023-04-24T07:43:38;3.43;;;1.07;;
1412;SDS011;701;52.526;13.408;2023-04-24T07:46:04;3.83;;;1.05;;
1412;SDS011;701;52.526;13.408;2023-04-24T07:48:29;3.35;;;0.98;;
1412;SDS011;701;52.526;13.408;2023-04-24T07:50:55;9.17;;;1.30;;
1412;SDS011;701;52.526;13.408;2023-04-24T07:53:21;4.97;;;1.30;;
1412;SDS011;701;52.526;13.408;2023-04-24T07:55:47;4.90;;;1.00;;
1412;SDS011;701;52.526;13.408;2023-04-24T07:58:13;5.80;;;1.13;;
1412;SDS011;701;52.526;13.408;2023-04-24T08:00:38;5.43;;;1.60;;
1412;SDS011;701;52.526;13.408;2023-04-24T08:03:04;4.10;;;1.20;;
1412;SDS011;701;52.526;13.408;2023-04-24T08:05:30;5.20;;;1.20;;
1412;SDS011;701;52.526;13.408;2023-04-24T08:07:56;4.10;;;1.20;;
1412;SDS011;701;52.526;13.408;2023-04-24T08:10:22;3.85;;;1.20;;
1412;SDS011;701;52.526;13.408;2023-04-24T08:12:48;4.95;;;1.40;;
1412;SDS011;701;52.526;13.408;2023-04-24T08:15:14;4.57;;;1.63;;
1412;SDS011;701;52.526;13.408;2023-04-24T08:17:39;7.97;;;1.70;;
1412;SDS011;701;52.526;13.408;2023-04-24T08:20:05;4.82;;;1.48;;
1412;SDS011;701;52.526;13.408;2023-04-24T08:22:35;5.30;;;1.20;;
1412;SDS011;701;52.526;13.408;2023-04-24T08:25:01;4.13;;;1.48;;
1412;SDS011;701;52.526;13.408;2023-04-24T08:27:27;4.45;;;1.38;;
1412;SDS011;701;52.526;13.408;2023-04-24T08:29:53;4.27;;;1.23;;
1412;SDS011;701;52.526;13.408;2023-04-24T08:32:19;3.40;;;1.20;;
1412;SDS011;701;52.526;13.408;2023-04-24T08:34:45;6.18;;;1.88;;
1412;SDS011;701;52.526;13.408;2023-04-24T08:37:11;8.57;;;1.37;;
1412;SDS011;701;52.526;13.408;2023-04-24T08:39:37;4.22;;;1.05;;
1412;SDS011;701;52.526;13.408;2023-04-24T08:42:04;4.10;;;1.00;;
1412;SDS011;701;52.526;13.408;2023-04-24T08:44:33;4.68;;;1.00;;
1412;SDS011;701;52.526;13.408;2023-04-24T08:47:00;5.10;;;1.03;;
1412;SDS011;701;52.526;13.408;2023-04-24T08:49:28;4.55;;;1.10;;
1412;SDS011;701;52.526;13.408;2023-04-24T08:51:54;4.85;;;1.00;;
1412;SDS011;701;52.526;13.408;2023-04-24T08:54:20;4.45;;;0.80;;
1412;SDS011;701;52.526;13.408;2023-04-24T08:56:47;4.83;;;1.10;;
1412;SDS011;701;52.526;13.408;2023-04-24T08:59:14;4.75;;;1.13;;
1412;SDS011;701;52.526;13.408;2023-04-24T09:01:41;4.63;;;1.50;;
1412;SDS011;701;52.526;13.408;2023-04-24T09:04:08;5.20;;;2.13;;
1412;SDS011;701;52.526;13.408;2023-04-24T09:06:45;5.63;;;1.27;;
1412;SDS011;701;52.526;13.408;2023-04-24T09:09:11;5.70;;;0.90;;
1412;SDS011;701;52.526;13.408;2023-04-24T09:11:37;5.00;;;1.50;;
1412;SDS011;701;52.526;13.408;2023-04-24T09:14:02;4.25;;;1.23;;
1412;SDS011;701;52.526;13.408;2023-04-24T09:16:29;5.57;;;1.45;;
1412;SDS011;701;52.526;13.408;2023-04-24T09:18:55;7.87;;;1.20;;
1412;SDS011;701;52.526;13.408;2023-04-24T09:21:21;3.78;;;0.80;;
1412;SDS011;701;52.526;13.408;2023-04-24T09:23:57;4.97;;;0.80;;
1412;SDS011;701;52.526;13.408;2023-04-24T09:26:24;4.78;;;0.90;;
1412;SDS011;701;52.526;13.408;2023-04-24T09:28:50;4.10;;;1.00;;
1412;SDS011;701;52.526;13.408;2023-04-24T09:31:17;3.70;;;1.13;;
1412;SDS011;701;52.526;13.408;2023-04-24T09:33:53;4.50;;;1.20;;
1412;SDS011;701;52.526;13.408;2023-04-24T09:36:30;4.35;;;1.20;;
1412;SDS011;701;52.526;13.408;2023-04-24T09:39:02;5.30;;;1.42;;
1412;SDS011;701;52.526;13.408;2023-04-24T09:41:31;4.00;;;1.00;;
1412;SDS011;701;52.526;13.408;2023-04-24T09:44:09;9.60;;;5.55;;
1412;SDS011;701;52.526;13.408;2023-04-24T09:46:55;7.10;;;1.40;;
1412;SDS011;701;52.526;13.408;2023-04-24T09:49:25;4.72;;;1.40;;
1412;SDS011;701;52.526;13.408;2023-04-24T09:51:52;4.72;;;1.30;;
1412;SDS011;701;52.526;13.408;2023-04-24T09:54:35;6.67;;;1.30;;
1412;SDS011;701;52.526;13.408;2023-04-24T09:57:05;4.82;;;1.00;;
1412;SDS011;701;52.526;13.408;2023-04-24T09:59:33;4.95;;;1.38;;
1412;SDS011;701;52.526;13.408;2023-04-24T10:01:59;5.57;;;1.27;;
1412;SDS011;701;52.526;13.408;2023-04-24T10:04:26;4.07;;;1.10;;
1412;SDS011;701;52.526;13.408;2023-04-24T10:06:54;5.63;;;0.93;;
1412;SDS011;701;52.526;13.408;2023-04-24T10:09:23;4.10;;;1.00;;
1412;SDS011;701;52.526;13.408;2023-04-24T10:11:51;3.70;;;1.13;;
1412;SDS011;701;52.526;13.408;2023-04-24T10:14:19;4.80;;;1.67;;
1412;SDS011;701;52.526;13.408;2023-04-24T10:16:46;7.63;;;1.15;;
1412;SDS011;701;52.526;13.408;2023-04-24T10:19:12;5.90;;;1.45;;
1412;SDS011;701;52.526;13.408;2023-04-24T10:21:40;4.40;;;1.15;;
1412;SDS011;701;52.526;13.408;2023-04-24T10:24:12;5.70;;;1.25;;
1412;SDS011;701;52.526;13.408;2023-04-24T10:26:40;5.23;;;1.27;;
1412;SDS011;701;52.526;13.408;2023-04-24T10:29:06;4.70;;;1.23;;
1412;SDS011;701;52.526;13.408;2023-04-24T10:31:37;4.20;;;1.35;;
1412;SDS011;701;52.526;13.408;2023-04-24T10:34:04;5.05;;;1.40;;
1412;SDS011;701;52.526;13.408;2023-04-24T10:36:31;5.63;;;1.25;;
1412;SDS011;701;52.526;13.408;2023-04-24T10:38:59;4.60;;;1.20;;
1412;SDS011;701;52.526;13.408;2023-04-24T10:41:27;4.47;;;1.30;;
1412;SDS011;701;52.526;13.408;2023-04-24T10:46:35;8.73;;;1.40;;
1412;SDS011;701;52.526;13.408;2023-04-24T10:49:03;4.78;;;1.40;;
1412;SDS011;701;52.526;13.408;2023-04-24T10:51:47;5.23;;;1.87;;
1412;SDS011;701;52.526;13.408;2023-04-24T10:54:22;5.32;;;1.50;;
1412;SDS011;701;52.526;13.408;2023-04-24T10:56:52;5.18;;;1.40;;
1412;SDS011;701;52.526;13.408;2023-04-24T10:59:38;4.78;;;1.38;;
1412;SDS011;701;52.526;13.408;2023-04-24T11:02:04;3.70;;;0.90;;
1412;SDS011;701;52.526;13.408;2023-04-24T11:04:33;6.50;;;1.00;;
1412;SDS011;701;52.526;13.408;2023-04-24T11:07:00;4.43;;;1.15;;
1412;SDS011;701;52.526;13.408;2023-04-24T11:09:28;4.82;;;1.50;;
1412;SDS011;701;52.526;13.408;2023-04-24T11:12:03;5.93;;;1.90;;
1412;SDS011;701;52.526;13.408;2023-04-24T11:14:59;4.60;;;1.47;;
1412;SDS011;701;52.526;13.408;2023-04-24T11:17:28;3.50;;;1.10;;
1412;SDS011;701;52.526;13.408;2023-04-24T11:20:05;4.82;;;1.30;;
1412;SDS011;701;52.526;13.408;2023-04-24T11:22:41;4.78;;;1.20;;
1412;SDS011;701;52.526;13.408;2023-04-24T11:25:07;4.80;;;1.23;;
1412;SDS011;701;52.526;13.408;2023-04-24T11:27:41;5.63;;;1.40;;
1412;SDS011;701;52.526;13.408;2023-04-24T11:30:08;8.00;;;4.10;;
1412;SDS011;701;52.526;13.408;2023-04-24T11:32:36;6.05;;;2.85;;
1412;SDS011;701;52.526;13.408;2023-04-24T11:35:05;4.63;;;1.60;;
1412;SDS011;701;52.526;13.408;2023-04-24T11:40:01;5.00;;;1.60;;
1412;SDS011;701;52.526;13.408;2023-04-24T11:42:33;5.03;;;1.40;;
1412;SDS011;701;52.526;13.408;2023-04-24T11:45:00;4.97;;;1.52;;
1412;SDS011;701;52.526;13.408;2023-04-24T11:47:30;4.13;;;1.00;;
1412;SDS011;701;52.526;13.408;2023-04-24T11:49:58;4.13;;;0.80;;
1412;SDS011;701;52.526;13.408;2023-04-24T11:52:25;5.43;;;1.02;;
1412;SDS011;701;52.526;13.408;2023-04-24T11:54:51;4.03;;;1.10;;
1412;SDS011;701;52.526;13.408;2023-04-24T11:57:21;3.77;;;1.00;;
1412;SDS011;701;52.526;13.408;2023-04-24T11:59:47;5.82;;;1.15;;
1412;SDS011;701;52.526;13.408;2023-04-24T12:02:23;3.70;;;1.10;;
1412;SDS011;701;52.526;13.408;2023-04-24T12:04:50;6.63;;;1.42;;
1412;SDS011;701;52.526;13.408;2023-04-24T12:07:16;4.23;;;1.20;;
1412;SDS011;701;52.526;13.408;2023-04-24T12:09:42;5.55;;;1.10;;
1412;SDS011;701;52.526;13.408;2023-04-24T12:12:13;6.88;;;1.35;;
1412;SDS011;701;52.526;13.408;2023-04-24T12:17:23;8.77;;;1.40;;
1412;SDS011;701;52.526;13.408;2023-04-24T12:19:56;5.45;;;1.52;;
1412;SDS011;701;52.526;13.408;2023-04-24T12:22:27;4.80;;;1.30;;
1412;SDS011;701;52.526;13.408;2023-04-24T12:25:00;4.40;;;1.30;;
1412;SDS011;701;52.526;13.408;2023-04-24T12:27:29;4.57;;;1.52;;
1412;SDS011;701;52.526;13.408;2023-04-24T12:29:56;4.17;;;1.20;;
1412;SDS011;701;52.526;13.408;2023-04-24T12:32:23;4.50;;;1.10;;
1412;SDS011;701;52.526;13.408;2023-04-24T12:34:50;4.88;;;1.25;;
1412;SDS011;701;52.526;13.408;2023-04-24T12:37:17;5.10;;;1.35;;
1412;SDS011;701;52.526;13.408;2023-04-24T12:39:58;6.50;;;1.40;;
1412;SDS011;701;52.526;13.408;2023-04-24T12:42:28;3.97;;;1.00;;
1412;SDS011;701;52.526;13.408;2023-04-24T12:44:56;3.85;;;1.02;;
1412;SDS011;701;52.526;13.408;2023-04-24T12:47:24;5.47;;;0.90;;
1412;SDS011;701;52.526;13.408;2023-04-24T12:49:50;5.20;;;1.00;;
1412;SDS011;701;52.526;13.408;2023-04-24T12:52:17;5.82;;;1.58;;
1412;SDS011;701;52.526;13.408;2023-04-24T12:54:54;3.70;;;1.10;;
1412;SDS011;701;52.526;13.408;2023-04-24T12:57:24;3.65;;;0.90;;
1412;SDS011;701;52.526;13.408;2023-04-24T12:59:54;5.93;;;1.40;;
1412;SDS011;701;52.526;13.408;2023-04-24T13:02:22;9.00;;;1.05;;
1412;SDS011;701;52.526;13.408;2023-04-24T13:04:48;4.90;;;1.30;;
1412;SDS011;701;52.526;13.408;2023-04-24T13:07:14;5.43;;;1.23;;
1412;SDS011;701;52.526;13.408;2023-04-24T13:09:41;4.72;;;1.00;;
1412;SDS011;701;52.526;13.408;2023-04-24T13:12:07;3.63;;;1.02;;
1412;SDS011;701;52.526;13.408;2023-04-24T13:14:33;5.90;;;1.10;;
1412;SDS011;701;52.526;13.408;2023-04-24T13:16:59;3.97;;;1.10;;
1412;SDS011;701;52.526;13.408;2023-04-24T13:19:25;4.53;;;1.40;;
1412;SDS011;701;52.526;13.408;2023-04-24T13:21:52;4.50;;;1.35;;
1412;SDS011;701;52.526;13.408;2023-04-24T13:24:19;4.93;;;1.00;;
1412;SDS011;701;52.526;13.408;2023-04-24T13:26:45;4.13;;;0.90;;
1412;SDS011;701;52.526;13.408;2023-04-24T13:29:11;3.75;;;1.13;;
1412;SDS011;701;52.526;13.408;2023-04-24T13:31:36;6.03;;;1.30;;
1412;SDS011;701;52.526;13.408;2023-04-24T13:34:02;7.77;;;1.60;;
1412;SDS011;701;52.526;13.408;2023-04-24T13:36:28;4.40;;;1.02;;
1412;SDS011;701;52.526;13.408;2023-04-24T13:38:55;7.40;;;1.25;;
1412;SDS011;701;52.526;13.408;2023-04-24T13:41:21;5.47;;;1.33;;
1412;SDS011;701;52.526;13.408;2023-04-24T13:43:47;5.57;;;1.20;;
1412;SDS011;701;52.526;13.408;2023-04-24T13:46:12;4.07;;;0.90;;
1412;SDS011;701;52.526;13.408;2023-04-24T13:48:38;4.10;;;1.33;;
1412;SDS011;701;52.526;13.408;2023-04-24T13:51:04;5.82;;;1.20;;
1412;SDS011;701;52.526;13.408;2023-04-24T13:53:30;3.43;;;1.00;;
1412;SDS011;701;52.526;13.408;2023-04-24T13:55:55;4.00;;;1.00;;
1412;SDS011;701;52.526;13.408;2023-04-24T13:58:21;4.23;;;1.03;;
1412;SDS011;701;52.526;13.408;2023-04-24T14:00:47;5.35;;;1.30;;
1412;SDS011;701;52.526;13.408;2023-04-24T14:03:12;4.93;;;1.23;;
1412;SDS011;701;52.526;13.408;2023-04-24T14:05:38;3.72;;;1.20;;
1412;SDS011;701;52.526;13.408;2023-04-24T14:08:04;3.70;;;0.98;;
1412;SDS011;701;52.526;13.408;2023-04-24T14:10:31;4.23;;;1.00;;
1412;SDS011;701;52.526;13.408;2023-04-24T14:12:59;5.25;;;1.38;;
1412;SDS011;701;52.526;13.408;2023-04-24T14:15:25;4.35;;;1.30;;
1412;SDS011;701;52.526;13.408;2023-04-24T14:17:50;3.83;;;1.20;;
1412;SDS011;701;52.526;13.408;2023-04-24T14:20:16;3.38;;;1.05;;
1412;SDS011;701;52.526;13.408;2023-04-24T14:22:42;3.67;;;1.00;;
1412;SDS011;701;52.526;13.408;2023-04-24T14:25:08;6.30;;;1.17;;
1412;SDS011;701;52.526;13.408;2023-04-24T14:27:34;4.22;;;1.27;;
1412;SDS011;701;52.526;13.408;2023-04-24T14:30:00;3.50;;;1.00;;
1412;SDS011;701;52.526;13.408;2023-04-24T14:32:26;4.68;;;1.08;;
1412;SDS011;701;52.526;13.408;2023-04-24T14:34:52;4.57;;;1.27;;
1412;SDS011;701;52.526;13.408;2023-04-24T14:37:17;4.53;;;1.23;;
1412;SDS011;701;52.526;13.408;2023-04-24T14:39:44;3.92;;;1.10;;
1412;SDS011;701;52.526;13.408;2023-04-24T14:42:10;4.30;;;1.27;;
1412;SDS011;701;52.526;13.408;2023-04-24T14:44:36;5.80;;;1.20;;
1412;SDS011;701;52.526;13.408;2023-04-24T14:47:02;3.83;;;1.05;;
1412;SDS011;701;52.526;13.408;2023-04-24T14:49:27;4.77;;;1.10;;
1412;SDS011;701;52.526;13.408;2023-04-24T14:51:53;4.25;;;1.27;;
1412;SDS011;701;52.526;13.408;2023-04-24T14:54:19;4.63;;;1.10;;
1412;SDS011;701;52.526;13.408;2023-04-24T14:56:44;3.80;;;1.20;;
1412;SDS011;701;52.526;13.408;2023-04-24T14:59:10;6.47;;;1.27;;
1412;SDS011;701;52.526;13.408;2023-04-24T15:01:36;5.80;;;1.30;;
1412;SDS011;701;52.526;13.408;2023-04-24T15:04:02;4.90;;;1.20;;
1412;SDS011;701;52.526;13.408;2023-04-24T15:06:27;5.32;;;1.20;;
1412;SDS011;701;52.526;13.408;2023-04-24T15:08:55;8.77;;;1.50;;
1412;SDS011;701;52.526;13.408;2023-04-24T15:11:21;4.53;;;1.30;;
1412;SDS011;701;52.526;13.408;2023-04-24T15:13:47;4.82;;;1.30;;
1412;SDS011;701;52.526;13.408;2023-04-24T15:16:13;5.07;;;2.00;;
1412;SDS011;701;52.526;13.408;2023-04-24T15:18:39;8.95;;;1.83;;
1412;SDS011;701;52.526;13.408;2023-04-24T15:21:04;6.47;;;1.35;;
1412;SDS011;701;52.526;13.408;2023-04-24T15:23:30;5.53;;;1.50;;
1412;SDS011;701;52.526;13.408;2023-04-24T15:25:56;7.28;;;1.75;;